Pavel Krejci

Olheiro-Chefe - Slovan Liberec
20 Nov 2027
Sábado
Processo

Personalidade

Adaptabilidade (7) Ambição (2) Controvérsia (3) Lealdade (17) Pressão (2) Profissionalismo (6) Espírito Esportivo (6) Temperamento (11)

Perfil

Estilo de Treinamento Democrático
Licença Continental Pro
Determinação 5
Gestão de Pessoas 11
Motivação 8
Disciplina 4
Satisfação no Trabalho
100%
Fadiga
0%
Função Olheiro-Chefe
Salário 38.9K p/s
Contrato 14.03.2028

Desempenho

Comportamento Bom
Eficácia do Treinamento
39%
Desenvolvimento do Jogador
45%
Prevenção de Lesões
35%
Implementação Tática
50%

Eventos Recentes

Participou de uma reunião de recrutamento agora
Recomendou um alvo de transferência agora
Participou de uma reunião de recrutamento 7d atrás
Recomendou um alvo de transferência 7d atrás
Recomendou um alvo de transferência 7d atrás
Participou de uma reunião de recrutamento 7d atrás
Recomendou um alvo de transferência 14d atrás
Participou de uma reunião de recrutamento 14d atrás

Monitorando agora

181
Jogador Clube Status Habilidade Confiança Observado Última observação Último voto
Esteban de Lima Tacuarembo Ativo 86 / 94 40% 1 30.08.2027 -
Mbekezeli Mbokazi Chicago Fire Ativo 132 / 125 40% 1 30.08.2027 -
Dennis Konney Berekum Chelsea Ativo 88 / 82 40% 1 30.08.2027 -
Vadim Arutyunyan Dnepr Mogilev Ativo 87 / 91 40% 1 24.08.2027 -
Juan Camilo Córdoba Deportivo Pereira Ativo 87 / 101 40% 1 24.08.2027 -
Geanfranco Rodríguez Defensor Sporting Ativo 97 / 102 40% 1 24.08.2027 -
Nathaniel Nwosu Zbrojovka Brno Ativo 106 / 115 40% 1 26.07.2027 -
Gonçalo Sobral Benfica Ativo 97 / 102 40% 1 26.07.2027 -
Max Kerkvliet Real Salt Lake Ativo 89 / 94 40% 1 26.07.2027 -
Alexis Alégué Zbrojovka Brno Perdido 125 / 123 76% 1 14.06.2027 Aprovar
Caio Vidal FC Copenhagen Negociando 128 / 129 63% 1 01.06.2027 Aprovar
Victor Ehibe Gazelle Garoua Ativo 91 / 92 40% 1 31.05.2027 -
Jonathan De Irastorza Levante Ativo 129 / 115 40% 1 31.05.2027 -
Tariq Lamptey Queens Park Rangers Ativo 129 / 143 40% 2 30.05.2027 -
Brooke Norton-Cuffy Hull City Ativo 131 / 131 40% 2 30.05.2027 -
Malik Mothersille Stockport County Ativo 117 / 115 40% 2 29.05.2027 -
Jack McGlynn Stoke City Ativo 126 / 140 40% 2 27.05.2027 -
Koki Saito Queens Park Rangers Ativo 122 / 134 40% 2 27.05.2027 -
Abraham Paintsil Hasaacas Ativo 94 / 89 40% 1 27.05.2027 -
Alex Verón Villarreal Ativo 111 / 114 40% 1 27.05.2027 -
Lamine Cissé Peterborough United Ativo 125 / 115 40% 1 25.05.2027 -
Jovon Makama Norwich City Ativo 120 / 122 40% 3 24.05.2027 -
Max Bird Birmingham Ativo 127 / 133 40% 4 24.05.2027 -
Myles Peart-Harris Oxford United Ativo 111 / 114 40% 1 24.05.2027 -
Tim Iroegbunam Hull City Ativo 144 / 145 40% 3 23.05.2027 -
Finn Azaz Southampton Ativo 133 / 138 40% 7 23.05.2027 -
Ar'jany Martha Rotherham United Ativo 106 / 100 40% 1 23.05.2027 -
Tomáš Rigo Stoke City Ativo 139 / 122 40% 4 22.05.2027 -
Cian Ashford Cardiff City Ativo 114 / 131 40% 5 21.05.2027 -
Rumarn Burrell Queens Park Rangers Ativo 121 / 126 40% 7 21.05.2027 -
Shea Lacey Millwall Ativo 113 / 121 40% 3 21.05.2027 -
Senny Mayulu Paris Saint-Germain Ativo 135 / 156 40% 1 21.05.2027 -
Amine Moussaoui Angers SCO Ativo 107 / 104 40% 1 21.05.2027 -
Aidomo Emakhu Oxford United Ativo 114 / 134 40% 3 19.05.2027 -
Dale Taylor Blackpool Ativo 119 / 109 40% 1 19.05.2027 -
Isaiah Jones Luton Town Ativo 128 / 131 40% 3 18.05.2027 -
Zeidane Inoussa Swansea City Ativo 130 / 119 40% 2 18.05.2027 -
Ishmael Addo Heart of Lions Ativo 81 / 91 40% 1 18.05.2027 -
Kasey McAteer Ipswich Town Ativo 140 / 119 40% 1 15.05.2027 -
Jack Diamond Stockport County Ativo 113 / 118 40% 1 15.05.2027 -
Melker Widell Swansea City Ativo 120 / 132 40% 1 15.05.2027 -
Jack Rudoni Coventry City Ativo 137 / 142 40% 3 14.05.2027 -
Othmane Maamma Watford Ativo 117 / 138 40% 3 13.05.2027 -
Paddy Lane Reading Ativo 109 / 115 40% 2 13.05.2027 -
Ramón Terrats Getafe Ativo 144 / 139 40% 4 12.05.2027 -
Mathias Jørgensen Blackburn Rovers Ativo 126 / 106 40% 5 12.05.2027 -
Nino Marcelli Slovan Bratislava Ativo 116 / 123 40% 1 12.05.2027 -
Tiago Freitas Benfica Ativo 110 / 116 40% 1 12.05.2027 -
Tom Fellows Southampton Ativo 131 / 132 40% 3 08.05.2027 -
Joe Gelhardt Hull City Ativo 132 / 127 40% 2 08.05.2027 -
Nestory Irankunda Watford Ativo 119 / 131 40% 3 08.05.2027 -
Leonardo Mendicino Bari Ativo 106 / 120 40% 1 08.05.2027 -
Gorka Gorosabel Real Sociedad Ativo 103 / 108 40% 1 08.05.2027 -
Jeon Jin-Woo Sheffield Wednesday Ativo 132 / 129 40% 6 07.05.2027 -
Relebohile Mofokeng Orlando Pirates Ativo 122 / 128 40% 4 04.05.2027 -
Max Johnston Derby County Ativo 127 / 133 40% 4 03.05.2027 -
Welington Southampton Ativo 136 / 118 40% 5 02.05.2027 -
Xavier Amaechi Plymouth Argyle Ativo 101 / 108 40% 1 02.05.2027 -
Jofre Torrents Ajax Ativo 113 / 119 40% 2 01.05.2027 -
Lander Astiazarán Real Sociedad Ativo 106 / 122 40% 1 01.05.2027 -
Ronwen Khune Black Aces Ativo 87 / 91 40% 1 01.05.2027 -
Andre Brooks Sheffield United Ativo 132 / 127 40% 4 30.04.2027 -
Milan van Ewijk Coventry City Ativo 133 / 141 40% 1 30.04.2027 -
Bobby Clark Derby County Ativo 126 / 117 40% 1 27.04.2027 -
Benjamin Tsivanyo Aduana Stars Ativo 86 / 84 40% 3 26.04.2027 -
Yaw Adjei Hasaacas Ativo 83 / 91 40% 1 24.04.2027 -
Sindre Walle Egeli Nottingham Forest Ativo 132 / 137 40% 1 24.04.2027 -
Jay Robinson Southampton Ativo 115 / 118 40% 1 24.04.2027 -
Manu Rodríguez Gijón Ativo 112 / 112 40% 1 23.04.2027 -
Jason Knight Bristol City Ativo 129 / 122 40% 1 21.04.2027 -
Million Manhoef Stoke City Ativo 134 / 122 40% 2 20.04.2027 -
Camilo Durán Bloemfontein Celtic Ativo 116 / 129 40% 8 19.04.2027 -
Lukáš Červ Viktoria Plzen Ativo 126 / 129 40% 3 19.04.2027 -
Romano Schmid Frosinone Ativo 143 / 146 40% 2 19.04.2027 -
Fraser Murray Wigan Athletic Ativo 111 / 109 40% 6 18.04.2027 -
Ethan Galbraith Swansea City Ativo 129 / 142 40% 3 18.04.2027 -
John Mercado Sparta Prague Ativo 129 / 119 40% 14 17.04.2027 -
Monty Batlhabane Polokwane City Ativo 94 / 110 40% 2 14.04.2027 -
Konan N'Dri Lecce Ativo 138 / 124 40% 1 14.04.2027 -
Mfundo Vilakazi Kaizer Chiefs Ativo 112 / 110 40% 1 14.04.2027 -
Jayden Luker Newport County Ativo 101 / 88 40% 2 13.04.2027 -
Caleb Yirenkyi Coventry City Ativo 134 / 149 40% 1 13.04.2027 -
Jacques Ekomié Wrexham Ativo 127 / 138 40% 2 11.04.2027 -
Tyrese Campbell Sheffield United Ativo 131 / 125 40% 2 10.04.2027 -
Andy Irving Sparta Prague Ativo 130 / 131 40% 8 08.04.2027 -
Louie Barry Sheffield Wednesday Ativo 121 / 130 40% 4 08.04.2027 -
Mihailo Ivanović Millwall Ativo 124 / 131 40% 1 08.04.2027 -
Harry Clarke Preston Ativo 126 / 115 40% 1 07.04.2027 -
James Dornelly Peterborough United Ativo 106 / 109 40% 1 05.04.2027 -
Mduduzi Shabalala Kaizer Chiefs Ativo 107 / 119 40% 6 02.04.2027 -
Matěj Ryneš Sparta Prague Ativo 126 / 119 40% 4 31.03.2027 -
Bienvenue Kanakimana Zbrojovka Brno Ativo 114 / 116 40% 2 25.03.2027 -
Oliver Skipp Leicester City Ativo 124 / 118 40% 2 21.03.2027 -
Matyáš Kozák Teplice Ativo 116 / 108 40% 2 18.03.2027 -
Helinho Toluca Ativo 131 / 122 40% 1 18.03.2027 -
Solomon John Mlada Boleslav Ativo 114 / 115 40% 9 13.03.2027 -
Florentino Luís Ipswich Town Ativo 149 / 137 40% 1 13.03.2027 -
Michal Kohút Banik Ostrava Ativo 134 / 133 40% 5 12.03.2027 -
Filip Kubala Banik Ostrava Ativo 119 / 115 40% 6 09.03.2027 -
David Jurásek Slavia Prague Ativo 120 / 128 40% 1 04.03.2027 -
Tshepang Moremi Orlando Pirates Ativo 120 / 123 40% 7 03.03.2027 -
Lukáš Vorlický Slovacko Ativo 118 / 110 40% 5 25.02.2027 -
Daniel Kyerewaa Reading Ativo 116 / 126 40% 1 25.02.2027 -
Filip Kaloč Ludogorets Ativo 120 / 120 40% 4 23.02.2027 -
Mauro Rodrigues Botev Plovdiv Ativo 113 / 115 40% 1 18.02.2027 -
Christian Krasnodar Ativo 130 / 137 40% 1 16.02.2027 -
Ebrima Singhateh Jablonec Ativo 107 / 112 40% 3 10.02.2027 -
Abubakar Ghali Sigma Olomouc Ativo 119 / 113 40% 1 10.02.2027 -
Isaac Price West Bromwich Albion Ativo 125 / 126 40% 1 08.02.2027 -
Ki-Jana Hoever Sparta Prague Ativo 133 / 129 40% 4 04.02.2027 -
Prince Adu Kwabena Viktoria Plzen Ativo 123 / 117 40% 4 04.02.2027 -
Jacob Greaves Ipswich Town Ativo 143 / 121 40% 1 25.01.2027 -
Billy Gilmour Napoli Ativo 147 / 146 40% 1 18.01.2027 -
Naphtali Mokoena Northampton Town Ativo 93 / 86 40% 1 08.01.2027 -
El Hadji Malick Diouf Brentford Ativo 135 / 133 40% 1 02.01.2027 -
Sampson Dweh Charleroi Negociando 133 / 134 66% 1 01.01.2027 Aprovar
Reda Khadra Qarabag Ativo 125 / 143 40% 2 26.12.2026 -
Ali Ahmed Norwich City Ativo 132 / 120 40% 1 21.12.2026 -
Péter Baráth Sigma Olomouc Ativo 113 / 122 40% 3 19.12.2026 -
Pablo Lara Pumas UNAM Perdido 112 / 123 40% 2 19.12.2026 -
Viktor Baier Viktoria Plzen Ativo 115 / 127 40% 1 19.12.2026 -
Patrik Hellebrand Korona Ativo 116 / 120 40% 6 17.12.2026 -
Jiří Boula Banik Ostrava Ativo 122 / 119 40% 4 15.12.2026 -
Jaroslav Harušťák Teplice Ativo 109 / 116 40% 2 13.12.2026 -
Matěj Koubek MFK Ruzomberok Ativo 110 / 108 40% 6 11.12.2026 -
Michal Fukala Zlin Ativo 112 / 118 40% 2 11.12.2026 -
Marko Soldo Sigma Olomouc Ativo 118 / 128 40% 2 10.12.2026 -
Cheick Oumar Souaré Viktoria Plzen Ativo 130 / 132 40% 3 10.12.2026 -
Giovanni Stellato Guidonia Montecelio Ativo 81 / 101 40% 2 10.12.2026 -
Theo Sander IF Elfsborg Perdido 116 / 128 40% 1 10.12.2026 -
Aljoša Matko Ujpest Ativo 120 / 119 40% 2 07.12.2026 -
Luka Lijeskić Radnicki 1923 Ativo 104 / 106 40% 1 07.12.2026 Mais informações
Sorba Thomas Stoke City Ativo 134 / 136 40% 1 06.12.2026 -
David Látal Slovacko Ativo 113 / 103 40% 3 04.12.2026 -
Petar Stanić Ludogorets Ativo 138 / 135 40% 2 03.12.2026 -
Fabricio Díaz San Lorenzo Ativo 88 / 87 40% 1 03.12.2026 -
Andy Ezekiel Ashanti Gold Ativo 87 / 88 40% 1 27.11.2026 -
Agustín Nogueira Barracas Central Ativo 86 / 97 40% 1 27.11.2026 -
Íker Blanco Independiente Medellin Ativo 88 / 91 40% 1 26.11.2026 -
Suleiman Camara Slovan Bratislava Ativo 119 / 115 40% 4 24.11.2026 -
Tomáš Ostrák St. Louis CITY SC Ativo 116 / 102 40% 3 22.11.2026 -
David Miculescu FCSB Ativo 123 / 117 40% 1 21.11.2026 -
Santiago Eneme-Bocari Sparta Prague Ativo 115 / 116 40% 2 20.11.2026 -
Philippe Ndinga Philadelphia Union Ativo 107 / 131 40% 2 17.11.2026 -
Karel Spáčil Viktoria Plzen Ativo 128 / 133 40% 3 17.11.2026 -
Gonçalo Oliveira Benfica Ativo 115 / 119 40% 1 17.11.2026 -
Dario Grgić Sigma Olomouc Ativo 104 / 119 40% 2 14.11.2026 -
Michal Beran Sigma Olomouc Ativo 108 / 120 40% 1 12.11.2026 -
Kelvin Yeboah Minnesota United FC Ativo 123 / 127 40% 5 03.11.2026 -
Mayckel Lahdo Malmo FF Ativo 131 / 137 40% 2 02.11.2026 -
Michal Sadílek Slavia Prague Ativo 124 / 126 40% 1 02.11.2026 -
Mauricio Amaro Atlanta United FC Ativo 122 / 120 40% 1 02.11.2026 -
Sergi Domínguez Dinamo Zagreb Ativo 121 / 116 40% 1 02.11.2026 -
Marcel Čermák Teplice Ativo 109 / 101 40% 1 26.10.2026 -
Dominik Pleštil Bohemians 1905 Ativo 107 / 109 40% 1 17.10.2026 -
Elias Achouri San Diego Football Club Ativo 142 / 117 40% 2 16.10.2026 -
Martín Ojeda Orlando City Ativo 127 / 120 40% 1 15.10.2026 -
David Da Costa Portland Timbers Ativo 137 / 133 40% 2 07.10.2026 -
Jorge Ruvalcaba New York Red Bulls Ativo 113 / 131 40% 1 06.10.2026 -
Tomás Chancalay Minnesota United FC Ativo 133 / 136 40% 1 05.10.2026 -
Telasco Segovia Inter Miami CF Ativo 120 / 130 40% 4 04.10.2026 -
Gabriel Pirani San Diego Football Club Ativo 128 / 116 40% 2 28.09.2026 -
Riqui Puig LA Galaxy Ativo 129 / 143 40% 2 27.09.2026 -
Yahaya Ibrahim Plateau United Ativo 90 / 84 40% 1 27.09.2026 -
Matěj Žitný Dukla Prague Ativo 97 / 104 40% 1 27.09.2026 -
Olalekan Adeleke Remo Stars Ativo 81 / 84 40% 2 24.09.2026 -
Matías Gómez Valencia Ativo 104 / 128 40% 1 24.09.2026 -
Morrison Agyemang Charlotte Football Club Ativo 109 / 109 40% 1 22.09.2026 -
Luca Langoni New England Revolution Ativo 135 / 132 40% 1 15.09.2026 -
Daniel Kelly Derby County Ativo 105 / 122 40% 1 14.09.2026 -
Kai Andrews Coventry City Ativo 111 / 118 40% 1 14.09.2026 -
Efe Lucky Jablonec Ativo 86 / 95 40% 1 14.09.2026 -
Sebastian Nebyla Jablonec Ativo 116 / 119 40% 1 14.09.2026 -
Roger Hinojo Espanyol Ativo 108 / 132 40% 1 12.09.2026 -
Cristian Mihai Dinamo Bucharest Ativo 102 / 117 40% 1 11.09.2026 -
Jan Chramosta Jablonec Ativo 117 / 117 40% 1 25.08.2026 -
Radek Šiler Podbrezova Ativo 111 / 115 40% 1 25.08.2026 -
Dominik Vott Pribram Ativo 90 / 93 30% 1 / 1m 19.08.2026 -
Alejo Gelsomino Gimnasia La Plata Ativo 109 / 120 40% 1 19.08.2026 -
Tadeáš Hájovský AS Trencin Ativo 92 / 105 40% 1 19.08.2026 -
Josh Sargent Toronto FC Ativo 127 / 140 40% 1 17.08.2026 -